createdAt,value
2023-01-25T00:00:05.594Z,59.54
2023-01-25T00:01:05.410Z,59.84
2023-01-25T00:02:05.362Z,59.44
2023-01-25T00:03:05.260Z,59.66
2023-01-25T00:04:05.049Z,59.46
2023-01-25T01:15:58.966Z,56.17
2023-01-25T01:16:58.922Z,56.36
2023-01-25T01:17:58.842Z,55.33
2023-01-25T01:18:58.763Z,56.53
2023-01-25T01:19:58.639Z,56.74
2023-01-25T01:20:58.523Z,56.62
2023-01-25T01:22:01.154Z,57.09
2023-01-25T01:22:58.290Z,57.64
2023-01-25T01:23:58.252Z,56.83
2023-01-25T01:24:58.634Z,57.36
2023-01-25T01:25:57.962Z,58.85
2023-01-25T01:26:57.850Z,56.91
2023-01-25T01:27:57.738Z,56.88
2023-01-25T01:28:57.639Z,57.41
2023-01-25T01:29:57.523Z,57.14
2023-01-25T01:30:57.382Z,54.19
2023-01-25T01:31:57.419Z,53.73
2023-01-25T01:32:57.174Z,56.55
2023-01-25T01:33:57.059Z,56.81
2023-01-25T01:34:56.974Z,56.62
2023-01-25T01:35:56.809Z,57.01
2023-01-25T01:36:56.703Z,54.83
2023-01-25T01:37:56.571Z,59.03
2023-01-25T01:38:56.475Z,56.67
2023-01-25T01:39:56.344Z,56.71
2023-01-25T01:40:56.218Z,57.31
2023-01-25T01:41:56.098Z,54.22
2023-01-25T01:42:56.020Z,53.53
2023-01-25T01:43:55.921Z,55.30
2023-01-25T01:44:55.764Z,59.04
2023-01-25T01:45:55.698Z,53.29
2023-01-25T01:46:55.530Z,55.17
2023-01-25T01:47:55.428Z,55.37
2023-01-25T01:48:55.288Z,55.84
2023-01-25T01:49:55.206Z,55.64
2023-01-25T01:50:55.067Z,51.69
2023-01-25T03:18:45.044Z,26.76
2023-01-25T04:28:38.211Z,26.47
2023-01-25T04:29:41.695Z,27.54
2023-01-25T04:30:38.006Z,27.65
2023-01-25T04:31:38.024Z,27.75
2023-01-25T04:32:37.975Z,26.68
2023-01-25T04:33:37.695Z,25.07
2023-01-25T04:34:37.573Z,25.90
2023-01-25T04:35:37.461Z,27.13
2023-01-25T04:36:37.371Z,28.77
2023-01-25T04:37:37.279Z,27.92
2023-01-25T04:38:37.145Z,27.72
2023-01-25T04:39:37.076Z,25.60
2023-01-25T04:40:36.923Z,26.34
2023-01-25T04:41:36.823Z,25.34
2023-01-25T04:42:36.757Z,26.58
2023-01-25T04:43:36.593Z,26.90
2023-01-25T04:44:38.227Z,29.12
2023-01-25T04:45:36.485Z,30.26
2023-01-25T04:46:36.291Z,26.49
2023-01-25T04:47:36.192Z,26.76
2023-01-25T04:48:36.054Z,27.48
2023-01-25T04:49:35.960Z,25.92
2023-01-25T04:50:35.846Z,28.99
2023-01-25T04:51:35.728Z,29.17
2023-01-25T04:52:36.197Z,29.38
2023-01-25T04:53:35.534Z,29.58
2023-01-25T04:54:35.407Z,30.08
2023-01-25T04:55:35.360Z,29.90
2023-01-25T04:56:35.214Z,30.22
2023-01-25T04:57:35.084Z,30.31
2023-01-25T04:58:35.705Z,30.44
2023-01-25T06:26:27.129Z,61.55
2023-01-25T06:27:27.007Z,57.54
2023-01-25T06:28:26.903Z,51.20
2023-01-25T06:29:26.809Z,52.36
2023-01-25T06:30:26.707Z,46.20
2023-01-25T06:31:26.695Z,47.59
2023-01-25T06:32:26.476Z,45.08
2023-01-25T06:33:26.368Z,48.62
2023-01-25T06:34:26.253Z,47.86
2023-01-25T06:35:26.152Z,54.90
2023-01-25T06:36:26.034Z,62.92
2023-01-25T06:37:25.950Z,61.86
2023-01-25T06:38:25.841Z,57.71
2023-01-25T06:39:25.730Z,59.01
2023-01-25T06:40:25.617Z,61.99
2023-01-25T06:41:25.513Z,63.59
2023-01-25T06:42:25.419Z,69.88
2023-01-25T06:43:25.296Z,73.23
2023-01-25T06:44:25.193Z,78.31
2023-01-25T06:45:25.081Z,78.16
2023-01-25T06:53:24.241Z,108.30
2023-01-25T06:54:24.122Z,111.82
2023-01-25T06:55:24.005Z,116.33
2023-01-25T06:56:23.911Z,122.07
2023-01-25T06:57:23.786Z,125.99
2023-01-25T06:58:23.666Z,126.53
2023-01-25T06:59:23.562Z,131.22
2023-01-25T07:00:23.463Z,132.19
2023-01-25T07:01:23.369Z,135.91
2023-01-25T07:02:23.309Z,136.44
2023-01-25T07:03:23.153Z,137.01
2023-01-25T07:04:23.064Z,137.60
2023-01-25T07:05:22.916Z,139.55
2023-01-25T07:06:22.825Z,142.27
2023-01-25T07:07:22.700Z,143.72
2023-01-25T07:08:22.621Z,143.52
2023-01-25T07:09:22.478Z,145.50
2023-01-25T07:10:22.397Z,147.49
2023-01-25T07:11:22.245Z,150.48
2023-01-25T07:12:22.142Z,158.00
2023-01-25T07:13:22.027Z,154.75
2023-01-25T07:14:21.944Z,153.97
2023-01-25T07:15:21.792Z,156.42
2023-01-25T07:16:21.698Z,161.93
2023-01-25T07:17:21.589Z,161.83
2023-01-25T07:18:21.476Z,161.93
2023-01-25T07:19:21.370Z,164.95
2023-01-25T07:20:21.302Z,162.24
2023-01-25T07:21:21.142Z,166.12
2023-01-25T07:22:21.056Z,169.98
2023-01-25T07:23:20.931Z,169.95
2023-01-25T07:24:20.889Z,172.06
2023-01-25T07:25:20.702Z,169.74
2023-01-25T07:26:20.600Z,169.97
2023-01-25T07:27:20.491Z,169.75
2023-01-25T07:28:20.371Z,170.85
2023-01-25T07:29:20.300Z,171.25
2023-01-25T07:30:20.141Z,173.60
2023-01-25T07:31:20.068Z,170.63
2023-01-25T07:32:19.927Z,174.10
2023-01-25T07:33:19.818Z,174.85
2023-01-25T07:34:19.759Z,171.77
2023-01-25T07:35:19.589Z,173.74
2023-01-25T07:36:19.471Z,176.72
2023-01-25T07:37:19.334Z,174.33
2023-01-25T07:38:19.229Z,175.12
2023-01-25T07:39:19.104Z,172.78
2023-01-25T07:40:19.015Z,175.06
2023-01-25T07:41:18.874Z,174.06
2023-01-25T07:42:18.751Z,171.46
2023-01-25T07:43:18.662Z,203.35
2023-01-25T07:44:18.532Z,197.30
2023-01-25T07:45:18.428Z,185.37
2023-01-25T07:46:18.311Z,179.86
2023-01-25T07:47:18.191Z,179.71
2023-01-25T07:48:18.137Z,176.45
2023-01-25T07:49:17.995Z,175.17
2023-01-25T07:50:17.924Z,180.38
2023-01-25T07:51:17.737Z,178.01
2023-01-25T07:52:17.620Z,175.74
2023-01-25T07:53:17.514Z,177.77
2023-01-25T07:54:17.419Z,178.89
2023-01-25T07:55:17.621Z,177.63
2023-01-25T07:56:17.147Z,178.35
2023-01-25T07:57:17.033Z,177.10
2023-01-25T07:58:16.916Z,176.56
2023-01-25T07:59:16.848Z,171.81
2023-01-25T08:00:16.958Z,175.26
2023-01-25T08:01:16.673Z,174.83
2023-01-25T08:02:16.650Z,171.92
2023-01-25T08:03:16.365Z,173.93
2023-01-25T08:04:16.227Z,169.56
2023-01-25T08:05:16.119Z,169.72
2023-01-25T08:06:16.013Z,167.00
2023-01-25T08:07:15.902Z,168.04
2023-01-25T08:08:15.803Z,167.09
2023-01-25T08:09:15.740Z,168.21
2023-01-25T08:10:15.746Z,167.60
2023-01-25T08:11:15.465Z,168.41
2023-01-25T08:12:15.326Z,172.53
2023-01-25T08:13:15.195Z,167.15
2023-01-25T08:14:15.117Z,167.69
2023-01-25T09:10:08.986Z,179.99
2023-01-25T09:11:08.476Z,178.93
2023-01-25T09:12:08.414Z,179.96
2023-01-25T09:13:08.850Z,179.32
2023-01-25T09:14:08.147Z,174.35
2023-01-25T09:15:08.519Z,175.64
2023-01-25T09:16:07.984Z,176.75
2023-01-25T09:17:07.981Z,175.39
2023-01-25T09:19:07.560Z,179.50
2023-01-25T09:20:07.778Z,177.55
2023-01-25T09:21:07.293Z,176.71
2023-01-25T09:22:07.171Z,177.31
2023-01-25T09:23:07.073Z,176.90
2023-01-25T09:24:08.066Z,175.93
2023-01-25T09:25:06.919Z,177.23
2023-01-25T09:26:06.728Z,175.05
2023-01-25T09:27:06.588Z,174.88
2023-01-25T09:28:06.546Z,173.77
2023-01-25T09:29:06.624Z,174.08
2023-01-25T09:30:10.885Z,176.03
2023-01-25T09:31:21.221Z,176.33
2023-01-25T09:32:07.132Z,176.49
2023-01-25T09:33:05.924Z,177.30
2023-01-25T09:34:05.784Z,179.36
2023-01-25T09:35:05.688Z,176.68
2023-01-25T09:36:05.556Z,177.96
2023-01-25T09:37:05.413Z,182.52
2023-01-25T09:38:05.326Z,188.52
2023-01-25T09:39:05.190Z,193.74
2023-01-25T09:40:05.078Z,190.72
2023-01-25T09:41:04.938Z,192.72
2023-01-25T09:42:14.138Z,195.53
2023-01-25T09:43:05.732Z,195.96
2023-01-25T09:44:14.236Z,196.85
2023-01-25T09:45:05.457Z,196.05
2023-01-25T09:46:04.370Z,197.14
2023-01-25T09:47:04.221Z,197.47
2023-01-25T09:48:04.100Z,201.00
2023-01-25T09:49:07.703Z,192.13
2023-01-25T09:50:03.926Z,194.52
2023-01-25T09:51:03.767Z,187.76
2023-01-25T09:52:03.639Z,184.58
2023-01-25T09:53:03.501Z,182.02
2023-01-25T09:54:03.358Z,170.88
2023-01-25T09:55:03.253Z,142.53
2023-01-25T09:56:03.114Z,144.76
2023-01-25T09:57:02.985Z,145.46
2023-01-25T09:58:02.891Z,160.55
2023-01-25T09:59:02.738Z,155.61
2023-01-25T10:00:03.230Z,161.21
2023-01-25T10:01:04.385Z,160.81
2023-01-25T10:02:02.468Z,154.53
2023-01-25T10:03:02.406Z,151.34
2023-01-25T10:04:02.144Z,145.57
2023-01-25T10:05:02.098Z,142.00
2023-01-25T10:06:01.926Z,146.49
2023-01-25T10:07:02.128Z,141.27
2023-01-25T10:08:01.693Z,139.04
2023-01-25T10:09:01.568Z,178.17
2023-01-25T10:10:01.434Z,225.16
2023-01-25T10:11:01.310Z,251.91
2023-01-25T10:12:01.207Z,268.38
2023-01-25T10:13:01.073Z,244.16
2023-01-25T10:14:00.998Z,243.15
2023-01-25T10:15:00.912Z,232.24
2023-01-25T10:16:00.726Z,223.95
2023-01-25T10:17:00.639Z,217.15
2023-01-25T10:18:00.496Z,215.72
2023-01-25T10:19:00.377Z,205.71
2023-01-25T10:20:00.277Z,191.68
2023-01-25T10:21:00.143Z,182.63
2023-01-25T10:22:59.923Z,165.63
2023-01-25T11:01:56.534Z,138.82
2023-01-25T11:03:56.379Z,128.31
2023-01-25T11:04:56.321Z,127.67
2023-01-25T11:05:56.219Z,127.84
2023-01-25T11:06:56.087Z,128.15
2023-01-25T11:07:55.980Z,127.91
2023-01-25T11:08:55.862Z,123.07
2023-01-25T11:09:55.745Z,119.19
2023-01-25T11:10:55.639Z,123.14
2023-01-25T11:11:55.507Z,117.10
2023-01-25T11:12:55.383Z,115.15
2023-01-25T11:13:55.272Z,115.17
2023-01-25T11:14:55.173Z,114.26
2023-01-25T11:15:55.050Z,111.82
2023-01-25T11:58:50.240Z,102.66
2023-01-25T11:59:50.143Z,102.11
2023-01-25T12:00:50.003Z,101.29
2023-01-25T12:02:49.913Z,101.78
2023-01-25T12:03:49.732Z,102.00
2023-01-25T12:04:49.540Z,101.20
2023-01-25T12:05:49.423Z,99.82
2023-01-25T12:06:49.329Z,98.31
2023-01-25T12:07:49.210Z,100.17
2023-01-25T12:08:49.076Z,98.25
2023-01-25T12:09:48.951Z,96.53
2023-01-25T12:10:48.852Z,99.89
2023-01-25T12:11:48.772Z,99.07
2023-01-25T12:12:48.624Z,99.25
2023-01-25T12:13:48.554Z,98.14
2023-01-25T12:14:48.378Z,95.78
2023-01-25T12:15:48.290Z,95.99
2023-01-25T12:16:48.159Z,96.25
2023-01-25T12:17:48.044Z,96.25
2023-01-25T12:18:47.916Z,96.83
2023-01-25T12:19:47.795Z,97.10
2023-01-25T12:20:47.709Z,92.48
2023-01-25T12:21:47.585Z,92.35
2023-01-25T12:22:47.461Z,93.21
2023-01-25T12:23:47.384Z,91.64
2023-01-25T12:24:47.222Z,91.85
2023-01-25T12:25:47.110Z,91.89
2023-01-25T12:26:47.018Z,91.82
2023-01-25T12:27:46.878Z,92.10
2023-01-25T12:28:46.790Z,92.07
2023-01-25T12:29:46.688Z,92.19
2023-01-25T12:30:46.580Z,90.99
2023-01-25T12:31:46.479Z,94.37
2023-01-25T12:32:46.351Z,91.04
2023-01-25T12:33:46.205Z,90.26
2023-01-25T12:34:46.109Z,91.90
2023-01-25T12:35:45.979Z,91.63
2023-01-25T12:36:45.875Z,92.38
2023-01-25T12:37:45.763Z,93.17
2023-01-25T12:38:45.651Z,92.76
2023-01-25T12:39:45.533Z,94.04
2023-01-25T12:40:45.461Z,92.85
2023-01-25T12:41:45.329Z,92.02
2023-01-25T12:42:45.195Z,94.04
2023-01-25T12:43:45.087Z,94.93
2023-01-25T12:44:45.002Z,94.14
2023-01-25T12:45:44.853Z,93.40
2023-01-25T12:46:44.788Z,93.03
2023-01-25T12:47:44.623Z,93.46
2023-01-25T12:48:44.528Z,94.05
2023-01-25T12:49:44.403Z,94.20
2023-01-25T12:50:44.287Z,94.44
2023-01-25T12:51:44.174Z,95.00
2023-01-25T12:52:44.070Z,95.66
2023-01-25T12:53:43.936Z,96.25
2023-01-25T12:54:43.817Z,98.62
2023-01-25T12:55:43.720Z,97.97
2023-01-25T12:56:43.612Z,98.12
2023-01-25T12:57:43.503Z,99.61
2023-01-25T12:58:43.362Z,96.09
2023-01-25T12:59:43.244Z,101.16
2023-01-25T13:00:43.146Z,102.47
2023-01-25T13:01:43.044Z,102.83
2023-01-25T13:02:42.906Z,108.41
2023-01-25T13:03:42.773Z,111.78
2023-01-25T13:04:42.683Z,111.41
2023-01-25T13:05:42.546Z,116.11
2023-01-25T13:06:42.434Z,118.96
2023-01-25T13:07:42.331Z,119.37
2023-01-25T13:08:42.194Z,120.94
2023-01-25T13:09:42.076Z,119.98
2023-01-25T13:10:41.983Z,125.13
2023-01-25T13:11:41.844Z,126.67
2023-01-25T13:12:41.731Z,129.02
2023-01-25T13:13:41.596Z,127.57
2023-01-25T13:14:41.475Z,123.74
2023-01-25T13:15:41.451Z,127.30
2023-01-25T13:16:41.237Z,131.51
2023-01-25T13:17:41.157Z,127.77
2023-01-25T13:18:41.002Z,131.10
2023-01-25T13:19:40.897Z,133.31
2023-01-25T13:20:40.767Z,134.21
2023-01-25T13:21:40.634Z,130.70
2023-01-25T13:22:42.715Z,132.98
2023-01-25T13:23:40.390Z,136.98
2023-01-25T13:24:40.288Z,135.91
2023-01-25T13:25:40.185Z,137.04
2023-01-25T13:26:40.050Z,133.27
2023-01-25T13:27:39.986Z,134.94
2023-01-25T13:28:39.863Z,131.55
2023-01-25T13:29:39.760Z,134.04
2023-01-25T13:30:39.668Z,136.84
2023-01-25T13:31:51.912Z,135.78
2023-01-25T13:32:40.400Z,135.94
2023-01-25T13:33:39.310Z,134.68
2023-01-25T13:34:39.316Z,134.55
2023-01-25T13:35:39.098Z,133.01
2023-01-25T13:36:38.882Z,133.94
2023-01-25T13:37:38.766Z,134.52
2023-01-25T13:38:38.639Z,132.62
2023-01-25T13:39:38.625Z,133.09
2023-01-25T13:40:38.429Z,129.04
2023-01-25T13:41:38.286Z,127.54
2023-01-25T13:42:38.181Z,127.68
2023-01-25T13:43:38.120Z,127.81
2023-01-25T13:44:37.942Z,127.63
2023-01-25T13:45:37.816Z,128.60
2023-01-25T13:46:37.694Z,129.53
2023-01-25T13:47:37.633Z,127.82
2023-01-25T13:48:38.331Z,127.74
2023-01-25T13:49:37.363Z,128.65
2023-01-25T13:50:37.290Z,127.96
2023-01-25T13:51:37.113Z,126.99
2023-01-25T13:52:37.027Z,130.63
2023-01-25T13:53:36.887Z,126.21
2023-01-25T13:54:36.789Z,129.38
2023-01-25T13:55:36.657Z,127.46
2023-01-25T13:56:36.553Z,130.79
2023-01-25T16:29:26.342Z,41.21
2023-01-25T16:30:26.373Z,40.15
2023-01-25T16:31:32.792Z,42.31
2023-01-25T16:32:27.261Z,42.55
2023-01-25T16:33:26.226Z,42.89
2023-01-25T16:34:26.201Z,43.42
2023-01-25T16:35:26.161Z,43.36
2023-01-25T16:36:26.126Z,46.44
2023-01-25T16:37:26.096Z,44.80
2023-01-25T16:38:26.057Z,44.43
2023-01-25T16:39:26.034Z,46.27
2023-01-25T16:40:26.010Z,45.36
2023-01-25T16:41:25.970Z,45.88
2023-01-25T16:42:25.930Z,44.78
2023-01-25T16:43:31.736Z,47.74
2023-01-25T16:45:25.855Z,47.30
2023-01-25T16:46:25.834Z,48.31
2023-01-25T16:47:27.686Z,43.99
2023-01-25T16:48:25.759Z,43.59
2023-01-25T16:49:25.725Z,45.80
2023-01-25T16:50:25.693Z,43.63
2023-01-25T16:51:25.664Z,46.65
2023-01-25T16:52:25.605Z,50.68
2023-01-25T16:53:25.579Z,48.85
2023-01-25T16:54:25.547Z,47.34
2023-01-25T16:55:25.516Z,49.47
2023-01-25T16:56:25.482Z,49.37
2023-01-25T16:57:25.445Z,45.93
2023-01-25T16:58:25.412Z,54.14
2023-01-25T16:59:25.371Z,52.20
2023-01-25T17:00:25.357Z,50.99
2023-01-25T17:01:25.393Z,53.24
2023-01-25T17:02:25.462Z,52.48
2023-01-25T17:03:25.429Z,51.52
2023-01-25T17:04:25.455Z,53.00
2023-01-25T17:05:25.703Z,52.01
2023-01-25T17:06:25.510Z,54.33
2023-01-25T17:07:25.532Z,52.32
2023-01-25T17:08:25.552Z,51.75
2023-01-25T17:09:25.798Z,50.72
2023-01-25T17:10:25.604Z,51.37
2023-01-25T17:11:25.632Z,53.84
2023-01-25T17:12:25.667Z,54.73
2023-01-25T17:13:25.681Z,52.83
2023-01-25T17:14:25.713Z,53.84
2023-01-25T17:15:25.743Z,55.92
2023-01-25T17:16:25.775Z,55.26
2023-01-25T17:17:25.797Z,55.84
2023-01-25T17:18:25.818Z,55.32
2023-01-25T17:19:25.846Z,51.24
2023-01-25T17:20:25.881Z,52.41
2023-01-25T17:21:25.915Z,50.67
2023-01-25T17:22:25.942Z,57.54
2023-01-25T17:23:25.977Z,58.69
2023-01-25T17:24:26.067Z,54.56
2023-01-25T17:25:26.004Z,53.72
2023-01-25T17:26:26.025Z,55.78
2023-01-25T17:27:26.075Z,53.08
2023-01-25T17:28:26.081Z,57.22
2023-01-25T17:29:26.107Z,54.08
2023-01-25T17:30:26.141Z,53.93
2023-01-25T17:31:26.254Z,57.56
2023-01-25T17:32:26.184Z,58.17
2023-01-25T17:33:26.189Z,58.12
2023-01-25T17:34:26.212Z,56.24
2023-01-25T17:35:26.252Z,54.56
2023-01-25T17:36:26.251Z,55.74
2023-01-25T17:37:26.311Z,57.42
2023-01-25T17:38:26.285Z,57.07
2023-01-25T17:39:26.303Z,57.40
2023-01-25T17:40:26.332Z,54.37
2023-01-25T17:41:26.384Z,60.25
2023-01-25T17:42:26.385Z,56.54
2023-01-25T17:43:26.411Z,59.07
2023-01-25T17:44:26.462Z,59.83
2023-01-25T17:45:26.456Z,58.81
2023-01-25T17:46:26.577Z,58.39
2023-01-25T17:47:26.512Z,59.77
2023-01-25T17:48:26.542Z,58.26
2023-01-25T17:49:26.565Z,59.88
2023-01-25T17:50:26.616Z,56.00
2023-01-25T17:51:26.620Z,58.82
2023-01-25T17:52:26.645Z,56.33
2023-01-25T17:53:26.677Z,60.44
2023-01-25T17:54:26.706Z,59.11
2023-01-25T17:55:26.728Z,59.58
2023-01-25T17:56:26.768Z,57.24
2023-01-25T17:57:26.799Z,59.25
2023-01-25T17:58:26.805Z,59.71
2023-01-25T17:59:26.831Z,59.63
2023-01-25T18:00:26.870Z,58.38
2023-01-25T18:01:26.930Z,59.69
2023-01-25T18:02:26.933Z,57.96
2023-01-25T18:03:26.918Z,60.47
2023-01-25T18:04:26.957Z,60.85
2023-01-25T18:05:26.977Z,60.73
2023-01-25T18:06:26.993Z,58.92
2023-01-25T18:07:27.029Z,58.78
2023-01-25T18:08:27.052Z,57.20
2023-01-25T18:09:27.088Z,56.35
2023-01-25T18:10:27.117Z,58.64
2023-01-25T18:11:27.142Z,60.43
2023-01-25T18:12:27.184Z,58.41
2023-01-25T18:13:27.202Z,59.50
2023-01-25T18:14:27.205Z,58.34
2023-01-25T18:15:27.229Z,58.75
2023-01-25T18:16:27.251Z,57.56
2023-01-25T18:17:27.275Z,60.74
2023-01-25T18:18:27.322Z,58.87
2023-01-25T18:19:27.373Z,59.31
2023-01-25T18:20:27.353Z,57.49
2023-01-25T18:21:27.372Z,58.12
2023-01-25T18:22:27.401Z,58.90
2023-01-25T18:23:27.460Z,55.03
2023-01-25T18:24:27.552Z,57.57
2023-01-25T18:25:27.496Z,55.63
2023-01-25T18:26:27.525Z,58.68
2023-01-25T18:27:27.556Z,57.98
2023-01-25T18:28:27.578Z,59.08
2023-01-25T18:29:27.647Z,57.08
2023-01-25T18:30:27.637Z,60.86
2023-01-25T18:31:27.823Z,60.32
2023-01-25T18:32:27.744Z,58.56
2023-01-25T18:33:27.743Z,60.10
2023-01-25T18:34:27.786Z,58.98
2023-01-25T18:36:27.785Z,59.62
2023-01-25T21:02:27.069Z,52.07
2023-01-25T21:03:29.750Z,52.31
2023-01-25T21:04:27.015Z,53.06
2023-01-25T21:05:26.965Z,52.92
2023-01-25T21:06:26.930Z,53.12
2023-01-25T21:07:26.915Z,51.97
2023-01-25T21:08:26.869Z,53.59
2023-01-25T21:09:26.839Z,51.93
2023-01-25T21:10:26.828Z,53.08
2023-01-25T21:11:26.776Z,52.44
2023-01-25T21:12:26.760Z,52.77
2023-01-25T21:13:26.713Z,51.21
2023-01-25T21:14:26.674Z,52.63
2023-01-25T21:15:26.643Z,51.80
2023-01-25T21:16:26.656Z,50.80
2023-01-25T21:17:26.588Z,52.54
2023-01-25T21:18:26.546Z,52.33
2023-01-25T21:19:26.629Z,51.34
2023-01-25T21:20:26.471Z,51.75
2023-01-25T21:21:26.455Z,52.55
2023-01-25T21:22:26.516Z,52.58
2023-01-25T21:23:26.371Z,52.46
2023-01-25T21:24:26.413Z,51.11
2023-01-25T21:25:26.347Z,51.68
2023-01-25T21:26:26.263Z,52.49
2023-01-25T21:27:26.232Z,49.86
2023-01-25T21:28:26.190Z,48.41
2023-01-25T21:29:26.157Z,49.64
2023-01-25T21:30:26.147Z,50.58
2023-01-25T21:31:26.159Z,49.44
2023-01-25T21:32:26.059Z,47.80
2023-01-25T21:33:26.023Z,52.22
2023-01-25T21:34:25.994Z,49.14
2023-01-25T21:35:25.964Z,51.31
2023-01-25T21:36:25.950Z,50.64
2023-01-25T21:37:25.887Z,49.10
2023-01-25T21:38:25.860Z,48.90
2023-01-25T21:39:25.834Z,48.72
2023-01-25T21:40:25.802Z,48.36
2023-01-25T21:41:25.776Z,49.04
2023-01-25T21:42:25.722Z,49.03
2023-01-25T21:43:25.686Z,48.14
2023-01-25T21:44:25.636Z,47.83
2023-01-25T21:45:25.657Z,47.66
2023-01-25T21:46:25.627Z,47.65
2023-01-25T21:47:30.774Z,46.06
2023-01-25T21:48:26.493Z,46.36
2023-01-25T21:49:25.467Z,46.96
2023-01-25T21:50:25.432Z,46.91
2023-01-25T21:51:25.395Z,48.10
2023-01-25T21:52:25.334Z,48.95
2023-01-25T21:53:25.305Z,46.48
2023-01-25T21:54:25.284Z,46.92
2023-01-25T21:55:25.250Z,46.01
2023-01-25T21:56:25.226Z,48.24
2023-01-25T21:57:25.185Z,46.58
2023-01-25T21:58:25.141Z,44.85
2023-01-25T21:59:25.113Z,46.00
2023-01-25T22:00:25.097Z,45.50
2023-01-25T22:01:25.075Z,44.80
2023-01-25T22:02:25.048Z,44.97
2023-01-25T22:03:24.973Z,44.87
2023-01-25T22:04:24.947Z,43.62
2023-01-25T22:05:24.885Z,45.47
2023-01-25T22:06:24.844Z,44.20
2023-01-25T22:07:24.812Z,42.77
2023-01-25T22:08:24.781Z,43.38
2023-01-25T22:09:24.746Z,42.98
2023-01-25T22:10:24.707Z,44.22
2023-01-25T22:11:24.681Z,43.69
2023-01-25T22:12:24.614Z,44.18
2023-01-25T22:13:24.582Z,44.27
2023-01-25T22:14:24.554Z,44.77
2023-01-25T22:15:24.528Z,43.52
2023-01-25T22:16:24.494Z,42.88
2023-01-25T22:17:24.458Z,42.06
2023-01-25T22:18:24.433Z,42.56
2023-01-25T22:19:24.367Z,41.98
2023-01-25T22:20:24.324Z,41.84
2023-01-25T22:21:24.287Z,42.34
2023-01-25T22:22:24.241Z,40.95
2023-01-25T22:23:24.199Z,41.60
2023-01-25T22:24:24.220Z,41.70
2023-01-25T22:25:24.122Z,41.05
2023-01-25T22:26:24.125Z,41.65
2023-01-25T22:27:24.056Z,40.79
2023-01-25T22:28:24.040Z,41.04
2023-01-25T22:29:24.011Z,41.06
2023-01-25T22:30:23.960Z,40.96
2023-01-25T22:31:24.000Z,40.68
2023-01-25T22:32:23.904Z,40.31
2023-01-25T22:33:23.864Z,39.78
2023-01-25T22:34:23.830Z,39.11
2023-01-25T22:35:23.817Z,38.84
2023-01-25T22:36:23.782Z,38.13
2023-01-25T22:37:23.736Z,40.35
2023-01-25T22:38:23.713Z,37.98
2023-01-25T22:39:23.681Z,38.75
2023-01-25T22:40:23.641Z,39.49
2023-01-25T22:41:23.603Z,38.45
2023-01-25T22:42:23.547Z,37.59
2023-01-25T22:43:23.505Z,39.60
2023-01-25T22:44:23.489Z,37.85
2023-01-25T22:45:23.441Z,38.07
2023-01-25T22:46:23.476Z,37.70
2023-01-25T22:47:23.379Z,37.38
2023-01-25T22:48:23.340Z,37.35
2023-01-25T22:49:23.299Z,38.13
2023-01-25T22:50:23.265Z,40.56
2023-01-25T22:51:25.320Z,37.47
2023-01-25T22:52:23.204Z,39.51
2023-01-25T22:53:23.141Z,39.23
2023-01-25T22:54:23.123Z,35.99
2023-01-25T22:55:23.062Z,37.12
2023-01-25T22:56:23.021Z,34.68
2023-01-25T22:57:22.983Z,35.28
2023-01-25T22:58:22.949Z,37.52
2023-01-25T22:59:22.914Z,36.61
2023-01-25T23:00:22.886Z,36.16
2023-01-25T23:01:22.935Z,37.04
2023-01-25T23:02:22.936Z,36.09
2023-01-25T23:03:22.970Z,35.33
2023-01-25T23:04:22.998Z,36.01
2023-01-25T23:05:22.991Z,36.02
2023-01-25T23:06:23.026Z,35.29
2023-01-25T23:07:23.044Z,35.82
2023-01-25T23:08:23.072Z,34.43
2023-01-25T23:09:23.111Z,34.39
2023-01-25T23:10:23.110Z,34.25
2023-01-25T23:11:23.141Z,36.13
2023-01-25T23:12:23.154Z,35.27
2023-01-25T23:13:23.177Z,34.22
2023-01-25T23:14:23.191Z,33.04
2023-01-25T23:15:23.215Z,33.96
2023-01-25T23:16:23.268Z,34.49
2023-01-25T23:17:23.286Z,34.80
2023-01-25T23:18:23.302Z,33.37
2023-01-25T23:19:23.315Z,32.38
2023-01-25T23:20:23.316Z,33.65
2023-01-25T23:21:23.325Z,32.95
2023-01-25T23:22:23.392Z,34.62
2023-01-25T23:23:23.366Z,34.56
2023-01-25T23:24:23.404Z,32.95
2023-01-25T23:25:23.404Z,33.50
2023-01-25T23:26:23.410Z,32.85
